Time;durP1;ratioP1;P1;durP2;ratioP2;P2;SDS_P1;SDS_P2;PMS_P1;PMS_P2;Temp;Humidity;BMP_temperature;BMP_pressure;BME280_temperature;BME280_humidity;BME280_pressure;Samples;Min_cycle;Max_cycle;Signal;HPM_P1;HPM_P2
2022/11/25 00:01:25;;;;;;;14.07;9.75;;;21.20;43.70;;;;;;4969280;28;20525;-69
2022/11/25 00:03:56;;;;;;;12.75;8.82;;;21.20;43.70;;;;;;4968612;28;20133;-69
2022/11/25 00:06:29;;;;;;;12.50;9.13;;;21.20;43.70;;;;;;4969410;28;20061;-69
2022/11/25 00:08:59;;;;;;;11.98;8.50;;;21.20;43.60;;;;;;4968436;28;20053;-69
2022/11/25 00:11:26;;;;;;;12.75;8.73;;;21.20;43.90;;;;;;4964003;28;20051;-69
2022/11/25 00:13:54;;;;;;;12.30;9.23;;;21.20;43.60;;;;;;4951720;28;20061;-69
2022/11/25 00:16:23;;;;;;;14.23;9.80;;;21.20;43.60;;;;;;4969089;28;20046;-69
2022/11/25 00:18:52;;;;;;;12.63;8.93;;;21.10;43.60;;;;;;4969574;28;20058;-69
2022/11/25 00:21:22;;;;;;;12.57;9.63;;;21.10;43.60;;;;;;4968928;28;20047;-69
2022/11/25 00:23:54;;;;;;;13.77;9.02;;;21.10;43.60;;;;;;4969406;28;20497;-69
2022/11/25 00:26:23;;;;;;;15.98;9.15;;;21.10;43.60;;;;;;4969134;28;20047;-69
2022/11/25 00:28:51;;;;;;;10.73;7.95;;;21.10;43.60;;;;;;4968947;28;20493;-69
2022/11/25 00:31:22;;;;;;;12.95;9.02;;;21.10;43.60;;;;;;4969069;28;20399;-69
2022/11/25 00:33:50;;;;;;;14.35;9.43;;;21.10;43.60;;;;;;4968818;28;20567;-69
2022/11/25 00:36:23;;;;;;;12.55;8.73;;;21.10;43.60;;;;;;4969436;28;20050;-69
2022/11/25 00:38:55;;;;;;;11.80;9.38;;;21.10;43.60;;;;;;4967482;28;20051;-69
2022/11/25 00:47:00;;;;;;;11.10;8.43;;;21.10;43.60;;;;;;4973620;28;20046;-69
2022/11/25 00:49:27;;;;;;;10.88;8.18;;;21.00;43.60;;;;;;4988584;28;20050;-69
2022/11/25 00:51:55;;;;;;;11.02;8.10;;;21.00;43.50;;;;;;4987969;28;20050;-69
2022/11/25 00:54:22;;;;;;;11.23;8.52;;;21.00;43.50;;;;;;4988390;28;20054;-69
2022/11/25 00:56:50;;;;;;;11.63;7.53;;;21.10;44.10;;;;;;4988213;28;20057;-69
2022/11/25 00:59:17;;;;;;;13.20;8.68;;;21.00;43.50;;;;;;4987995;28;20054;-69
2022/11/25 01:01:45;;;;;;;13.20;8.88;;;21.00;43.50;;;;;;4987877;28;20050;-69
2022/11/25 01:04:12;;;;;;;11.25;8.60;;;21.10;43.60;;;;;;4987469;28;20050;-70
2022/11/25 01:06:39;;;;;;;12.90;8.88;;;21.00;43.60;;;;;;4988312;28;20056;-69
2022/11/25 01:09:07;;;;;;;12.40;8.82;;;21.00;43.50;;;;;;4970718;28;20046;-69
2022/11/25 01:11:35;;;;;;;12.27;8.85;;;21.00;43.50;;;;;;4987738;28;20050;-69
2022/11/25 01:14:02;;;;;;;13.25;8.65;;;21.00;43.50;;;;;;4988208;28;20286;-69
2022/11/25 01:16:29;;;;;;;9.77;8.05;;;21.00;43.50;;;;;;4983516;28;20073;-69
2022/11/25 01:18:59;;;;;;;12.25;8.93;;;21.00;43.50;;;;;;4987999;28;20060;-69
2022/11/25 01:21:28;;;;;;;10.32;8.27;;;21.00;43.50;;;;;;4989682;28;20408;-69
2022/11/25 01:23:57;;;;;;;10.88;8.23;;;21.00;43.50;;;;;;4991439;28;20054;-69
2022/11/25 01:26:25;;;;;;;10.50;8.25;;;21.00;43.50;;;;;;4991238;28;20157;-69
2022/11/25 01:28:54;;;;;;;10.10;7.70;;;21.00;43.50;;;;;;4991270;28;20086;-69
2022/11/25 01:31:24;;;;;;;10.73;7.27;;;21.00;43.50;;;;;;4974152;28;20049;-69
2022/11/25 01:33:57;;;;;;;11.02;8.18;;;21.00;43.50;;;;;;4991111;28;20051;-69
2022/11/25 01:36:24;;;;;;;10.48;7.95;;;20.90;43.50;;;;;;4991463;28;20058;-69
2022/11/25 01:38:53;;;;;;;10.43;7.72;;;20.90;43.40;;;;;;4990185;28;20061;-69
2022/11/25 01:41:22;;;;;;;11.65;8.10;;;20.90;43.50;;;;;;4990992;28;20046;-69
2022/11/25 01:44:11;;;;;;;11.30;7.70;;;20.90;43.50;;;;;;4973654;28;20515;-70
2022/11/25 01:47:14;;;;;;;10.38;7.72;;;20.90;43.40;;;;;;4991143;28;20109;-69
2022/11/25 01:49:49;;;;;;;9.88;7.10;;;20.90;43.40;;;;;;4986268;28;20104;-69
2022/11/25 01:52:33;;;;;;;10.68;8.27;;;20.90;43.40;;;;;;4973376;28;20047;-69
2022/11/25 01:55:05;;;;;;;9.30;7.43;;;20.90;43.40;;;;;;4991169;28;20046;-69
2022/11/25 01:57:47;;;;;;;10.43;7.65;;;20.90;43.40;;;;;;4991220;28;20378;-69
2022/11/25 02:00:15;;;;;;;10.70;8.02;;;20.90;43.40;;;;;;4978489;28;20051;-69
2022/11/25 02:02:43;;;;;;;11.52;7.78;;;20.90;43.50;;;;;;4970948;28;20405;-69
2022/11/25 02:05:14;;;;;;;10.18;7.63;;;20.90;43.40;;;;;;4970526;28;20055;-70
2022/11/25 02:07:44;;;;;;;9.77;7.18;;;20.90;43.40;;;;;;4969879;28;20055;-69
2022/11/25 02:10:17;;;;;;;;;;;20.90;43.40;;;;;;4969545;28;20047;-69
2022/11/25 02:12:45;;;;;;;9.27;6.70;;;20.90;43.40;;;;;;4970953;28;19946;-69
2022/11/25 02:15:14;;;;;;;10.98;7.35;;;20.90;43.40;;;;;;4971223;28;20073;-69
2022/11/25 02:17:42;;;;;;;8.98;7.07;;;20.90;43.40;;;;;;4966785;28;20046;-69
2022/11/25 02:20:14;;;;;;;9.65;6.90;;;20.90;43.40;;;;;;4965979;28;20697;-69
2022/11/25 02:23:06;;;;;;;10.27;7.30;;;20.90;43.30;;;;;;4970914;28;20061;-70
2022/11/25 02:25:39;;;;;;;11.20;7.13;;;20.90;43.30;;;;;;4957042;28;20121;-70
2022/11/25 02:28:16;;;;;;;9.00;6.50;;;20.90;43.30;;;;;;4970714;28;20050;-69
2022/11/25 02:30:45;;;;;;;8.70;7.18;;;20.90;43.30;;;;;;4971171;28;20046;-69
2022/11/25 02:33:13;;;;;;;9.75;7.00;;;20.90;43.30;;;;;;4952892;28;20042;-69
2022/11/25 02:35:42;;;;;;;9.95;7.80;;;20.90;43.20;;;;;;4970928;28;20051;-69
2022/11/25 02:38:19;;;;;;;9.00;6.80;;;20.90;43.20;;;;;;4970352;28;20038;-69
2022/11/25 02:41:00;;;;;;;8.45;6.70;;;20.90;43.20;;;;;;4970663;28;20046;-70
2022/11/25 02:43:27;;;;;;;10.43;7.45;;;20.90;43.20;;;;;;4952656;28;20063;-69
2022/11/25 02:46:01;;;;;;;8.52;6.45;;;20.90;43.20;;;;;;4970208;28;20054;-69
2022/11/25 02:48:30;;;;;;;10.43;7.35;;;20.90;43.20;;;;;;4970503;28;20047;-69
2022/11/25 02:51:19;;;;;;;8.32;6.50;;;20.90;43.20;;;;;;4965201;28;20254;-69
2022/11/25 02:53:46;;;;;;;7.70;6.00;;;20.90;43.20;;;;;;4970521;28;20087;-69
2022/11/25 02:56:17;;;;;;;8.73;6.35;;;20.90;43.20;;;;;;4970604;28;20477;-69
2022/11/25 02:58:44;;;;;;;7.47;6.30;;;20.80;43.20;;;;;;4953048;28;20061;-70
2022/11/25 03:01:11;;;;;;;7.85;6.03;;;20.90;43.20;;;;;;4970386;28;20043;-70
2022/11/25 03:03:39;;;;;;;8.48;6.63;;;20.90;43.20;;;;;;4969998;28;20051;-70
2022/11/25 03:06:06;;;;;;;9.38;6.32;;;20.80;43.10;;;;;;4968971;28;20039;-70
2022/11/25 03:08:34;;;;;;;8.18;6.13;;;20.80;43.10;;;;;;4952324;28;20050;-69
2022/11/25 03:11:01;;;;;;;7.43;5.72;;;20.80;43.10;;;;;;4936806;28;20559;-69
2022/11/25 03:13:28;;;;;;;8.25;6.38;;;20.80;43.10;;;;;;4970020;28;20052;-69
2022/11/25 03:15:56;;;;;;;8.23;6.40;;;20.80;43.20;;;;;;4951695;28;20057;-69
2022/11/25 03:18:23;;;;;;;7.28;6.00;;;20.90;43.20;;;;;;4969796;28;20412;-69
2022/11/25 03:20:54;;;;;;;8.63;5.80;;;20.80;43.10;;;;;;4969912;28;20059;-70
2022/11/25 03:23:21;;;;;;;8.77;6.18;;;20.80;43.10;;;;;;4964996;28;20047;-70
2022/11/25 03:25:48;;;;;;;7.75;6.10;;;20.80;43.10;;;;;;4969405;28;20305;-69
2022/11/25 03:28:16;;;;;;;8.93;6.10;;;20.80;43.10;;;;;;4968705;28;20062;-69
2022/11/25 03:30:43;;;;;;;6.80;5.75;;;20.80;43.10;;;;;;4969548;28;20089;-70
2022/11/25 03:33:10;;;;;;;7.28;5.82;;;20.80;43.10;;;;;;4968911;28;20053;-69
2022/11/25 03:35:37;;;;;;;6.07;5.47;;;20.80;43.10;;;;;;4952051;28;20047;-69
2022/11/25 03:38:04;;;;;;;6.70;5.40;;;20.80;43.10;;;;;;4968781;28;20106;-69
2022/11/25 03:40:31;;;;;;;6.30;5.53;;;20.80;43.10;;;;;;4968695;28;20077;-69
2022/11/25 03:42:58;;;;;;;6.38;5.18;;;20.80;43.10;;;;;;4968789;28;20046;-69
2022/11/25 03:45:25;;;;;;;9.13;5.97;;;20.80;43.10;;;;;;4969442;28;20054;-69
2022/11/25 03:47:52;;;;;;;8.02;5.72;;;20.80;43.10;;;;;;4969559;28;20054;-70
2022/11/25 03:50:19;;;;;;;7.82;5.47;;;20.80;43.10;;;;;;4968504;28;20051;-69
2022/11/25 03:52:46;;;;;;;6.53;5.47;;;20.80;43.10;;;;;;4969397;28;20483;-70
2022/11/25 03:55:13;;;;;;;5.90;5.13;;;20.70;43.00;;;;;;4963741;28;20062;-69
2022/11/25 03:57:41;;;;;;;7.53;5.53;;;20.80;43.10;;;;;;4969293;28;20054;-69
2022/11/25 04:00:11;;;;;;;6.22;4.97;;;20.80;43.10;;;;;;4968611;28;20054;-69
2022/11/25 04:02:38;;;;;;;8.15;5.80;;;20.70;43.00;;;;;;4969058;28;20065;-69
2022/11/25 04:05:06;;;;;;;6.60;5.43;;;20.70;43.00;;;;;;4968828;28;20540;-70
2022/11/25 04:07:33;;;;;;;6.30;5.40;;;20.70;43.00;;;;;;4968838;28;20039;-69
2022/11/25 04:10:00;;;;;;;7.20;5.45;;;20.70;43.00;;;;;;4968929;28;20043;-70
2022/11/25 04:15:15;;;;;;;6.75;5.68;;;20.70;43.00;;;;;;4969421;28;20050;-70
2022/11/25 04:17:43;;;;;;;6.90;5.18;;;20.70;43.00;;;;;;4968702;28;20055;-69
2022/11/25 04:20:11;;;;;;;5.15;4.65;;;20.70;43.10;;;;;;4968788;28;20065;-69
2022/11/25 04:22:38;;;;;;;5.82;4.80;;;20.70;43.10;;;;;;4968506;28;20046;-69
2022/11/25 04:25:06;;;;;;;7.85;5.63;;;20.70;43.00;;;;;;4969092;28;20051;-69
2022/11/25 04:27:33;;;;;;;6.80;4.90;;;20.70;43.00;;;;;;4963428;28;20053;-69
2022/11/25 04:30:00;;;;;;;6.80;5.53;;;20.70;43.00;;;;;;4969069;28;20050;-69
2022/11/25 04:32:27;;;;;;;5.13;4.47;;;20.70;43.00;;;;;;4969441;28;20503;-69
2022/11/25 04:34:54;;;;;;;7.20;5.50;;;20.70;43.00;;;;;;4969226;28;20047;-70
2022/11/25 04:37:21;;;;;;;6.13;4.70;;;20.70;43.00;;;;;;4951225;28;20485;-69
2022/11/25 04:39:49;;;;;;;6.50;5.22;;;20.70;42.90;;;;;;4968849;28;20312;-69
2022/11/25 04:42:33;;;;;;;6.93;5.43;;;20.70;42.90;;;;;;4951867;28;20046;-69
2022/11/25 04:45:02;;;;;;;7.15;5.30;;;20.70;42.90;;;;;;4967094;28;20150;-69
2022/11/25 04:47:49;;;;;;;5.35;4.60;;;20.70;42.90;;;;;;4967738;28;20046;-69
2022/11/25 04:50:20;;;;;;;7.10;5.43;;;20.70;42.90;;;;;;4968578;28;20078;-69
2022/11/25 04:52:47;;;;;;;5.57;4.50;;;20.70;42.90;;;;;;4968097;28;20051;-69
2022/11/25 04:55:14;;;;;;;5.32;4.82;;;20.70;42.90;;;;;;4969009;28;20465;-69
2022/11/25 04:57:41;;;;;;;6.18;5.25;;;20.70;43.40;;;;;;4980605;28;20054;-69
2022/11/25 05:00:09;;;;;;;7.10;4.45;;;20.70;42.80;;;;;;4976079;28;20066;-70
2022/11/25 05:02:36;;;;;;;5.05;4.55;;;20.70;42.80;;;;;;4972658;28;20058;-69
2022/11/25 05:05:04;;;;;;;4.70;4.20;;;20.70;42.80;;;;;;4971685;28;20067;-70
2022/11/25 05:07:31;;;;;;;6.85;5.30;;;20.70;42.80;;;;;;4971737;28;20051;-69
2022/11/25 05:09:58;;;;;;;5.90;4.50;;;20.60;42.80;;;;;;4971584;28;20430;-70
2022/11/25 05:12:27;;;;;;;4.60;4.20;;;20.70;42.80;;;;;;4972237;28;20052;-69
2022/11/25 05:14:55;;;;;;;5.95;4.50;;;20.70;42.80;;;;;;4971856;28;20051;-69
2022/11/25 05:17:25;;;;;;;5.32;4.43;;;20.60;42.80;;;;;;4953094;28;20358;-69
2022/11/25 05:19:52;;;;;;;4.60;4.00;;;20.60;42.80;;;;;;4971288;28;20489;-69
2022/11/25 05:22:22;;;;;;;5.88;4.78;;;20.60;42.80;;;;;;4954607;28;20129;-69
2022/11/25 05:24:49;;;;;;;5.10;4.57;;;20.60;42.80;;;;;;4969453;28;20485;-69
2022/11/25 05:27:16;;;;;;;5.65;4.32;;;20.60;42.80;;;;;;4969904;28;20699;-69
2022/11/25 05:29:44;;;;;;;5.78;4.30;;;20.60;42.80;;;;;;4971755;28;20416;-69
2022/11/25 05:32:11;;;;;;;4.55;3.90;;;20.60;42.80;;;;;;4966386;28;20430;-69
2022/11/25 05:34:39;;;;;;;5.53;4.75;;;20.60;42.80;;;;;;4969809;28;20051;-69
2022/11/25 05:37:06;;;;;;;7.07;5.25;;;20.60;42.80;;;;;;4971434;28;20409;-70
2022/11/25 05:39:33;;;;;;;5.40;4.65;;;20.60;42.50;;;;;;4969624;28;20039;-70
2022/11/25 05:42:01;;;;;;;5.45;4.75;;;20.60;42.30;;;;;;4970565;28;20057;-69
2022/11/25 05:44:28;;;;;;;5.85;4.30;;;20.60;42.30;;;;;;4971065;28;20066;-69
2022/11/25 05:46:55;;;;;;;4.75;4.07;;;20.60;42.30;;;;;;4953743;28;20045;-69
2022/11/25 05:49:22;;;;;;;5.60;4.20;;;20.50;42.30;;;;;;4970583;28;20315;-69
2022/11/25 05:51:49;;;;;;;6.40;4.82;;;20.60;42.30;;;;;;4970275;28;20062;-69
2022/11/25 05:54:16;;;;;;;6.13;4.82;;;20.50;42.20;;;;;;4970726;28;20432;-70
2022/11/25 05:56:43;;;;;;;7.03;5.13;;;20.50;42.10;;;;;;4969964;28;20134;-69
2022/11/25 05:59:10;;;;;;;8.32;5.32;;;20.60;42.10;;;;;;4969853;28;20043;-70
2022/11/25 06:01:37;;;;;;;6.20;4.53;;;20.60;42.00;;;;;;4970682;28;20046;-69
2022/11/25 06:04:05;;;;;;;5.38;4.78;;;20.60;42.00;;;;;;4948359;28;20138;-70
2022/11/25 06:06:32;;;;;;;5.97;5.20;;;20.60;41.90;;;;;;4967473;28;20496;-70
2022/11/25 06:09:00;;;;;;;6.22;4.93;;;20.70;41.90;;;;;;4968717;28;20051;-69
2022/11/25 06:11:27;;;;;;;6.75;5.30;;;20.70;41.80;;;;;;4971648;28;20110;-69
2022/11/25 06:13:56;;;;;;;7.72;5.13;;;20.70;41.80;;;;;;4954122;28;20055;-69
2022/11/25 06:16:24;;;;;;;7.15;5.55;;;20.70;41.70;;;;;;4971410;28;20501;-64
2022/11/25 06:18:51;;;;;;;6.63;4.90;;;20.70;41.70;;;;;;4971365;28;20054;-64
2022/11/25 06:21:19;;;;;;;5.13;4.57;;;20.80;41.70;;;;;;4971834;28;20413;-64
2022/11/25 06:23:46;;;;;;;7.40;5.70;;;20.80;41.70;;;;;;4971836;28;20043;-69
2022/11/25 06:26:16;;;;;;;11.25;6.13;;;20.80;41.70;;;;;;4963969;28;20066;-68
2022/11/25 06:28:44;;;;;;;7.95;6.35;;;20.80;41.60;;;;;;4969431;28;20043;-66
2022/11/25 06:31:17;;;;;;;9.25;5.80;;;20.80;41.60;;;;;;4950874;28;20271;-70
2022/11/25 06:33:49;;;;;;;9.02;5.57;;;20.90;41.60;;;;;;4968315;28;20566;-68
2022/11/25 06:36:18;;;;;;;8.07;6.03;;;20.90;41.50;;;;;;4963256;28;20046;-68
2022/11/25 06:38:51;;;;;;;7.05;5.50;;;20.90;41.50;;;;;;4965453;28;20166;-67
2022/11/25 06:41:19;;;;;;;8.30;6.35;;;21.00;41.50;;;;;;4965786;28;20053;-67
2022/11/25 06:43:46;;;;;;;8.88;6.47;;;21.00;41.40;;;;;;4967034;28;20076;-68
2022/11/25 06:46:16;;;;;;;9.43;6.50;;;21.00;41.30;;;;;;4957365;28;20519;-66
2022/11/25 06:48:51;;;;;;;8.13;5.72;;;21.10;41.30;;;;;;4965544;28;20051;-67
2022/11/25 06:51:19;;;;;;;8.30;6.22;;;21.10;41.30;;;;;;4965674;28;20640;-67
2022/11/25 06:53:47;;;;;;;10.55;7.05;;;21.20;41.30;;;;;;4969414;28;20066;-67
2022/11/25 06:56:18;;;;;;;9.38;6.63;;;21.20;41.10;;;;;;4965077;28;20556;-67
2022/11/25 06:58:46;;;;;;;13.57;9.30;;;21.20;41.00;;;;;;4965139;28;20050;-67
2022/11/25 07:01:17;;;;;;;15.75;10.45;;;21.30;40.90;;;;;;4964377;28;20053;-67
2022/11/25 07:03:46;;;;;;;12.05;7.57;;;21.30;40.90;;;;;;4964315;28;20414;-66
2022/11/25 07:06:15;;;;;;;11.50;8.15;;;21.30;41.00;;;;;;4963203;28;22137;-67
2022/11/25 07:08:43;;;;;;;11.93;8.88;;;21.40;41.40;;;;;;4940712;28;20090;-67
2022/11/25 07:11:20;;;;;;;14.20;9.23;;;21.40;41.50;;;;;;4966350;28;20508;-68
2022/11/25 07:13:58;;;;;;;14.40;8.88;;;21.40;41.30;;;;;;4963223;28;20127;-68
2022/11/25 07:16:26;;;;;;;10.85;8.27;;;21.40;41.20;;;;;;4962318;28;20054;-65
2022/11/25 07:18:54;;;;;;;11.27;8.43;;;21.50;41.30;;;;;;4964197;28;20183;-67
2022/11/25 07:21:23;;;;;;;14.23;9.75;;;21.50;41.20;;;;;;4965734;28;20053;-71
2022/11/25 07:23:52;;;;;;;11.53;8.53;;;21.60;41.10;;;;;;4948243;28;20109;-69
2022/11/25 07:26:22;;;;;;;11.32;8.45;;;21.60;41.10;;;;;;4966697;28;20492;-75
2022/11/25 07:28:51;;;;;;;10.88;8.05;;;21.60;41.40;;;;;;4965092;28;20055;-68
2022/11/25 07:31:24;;;;;;;12.80;8.98;;;21.70;41.70;;;;;;4969762;28;20054;-78
2022/11/25 07:34:00;;;;;;;14.13;9.07;;;21.70;41.90;;;;;;4961084;28;20054;-71
2022/11/25 07:36:29;;;;;;;12.55;8.80;;;21.80;42.20;;;;;;4966260;28;20141;-71
2022/11/25 07:38:58;;;;;;;15.50;10.43;;;21.80;42.30;;;;;;4962628;28;20051;-64
2022/11/25 07:41:27;;;;;;;15.38;10.50;;;21.90;42.30;;;;;;4959881;28;20050;-68
2022/11/25 07:44:03;;;;;;;17.13;9.70;;;21.90;42.30;;;;;;4966117;28;20046;-68
2022/11/25 07:46:33;;;;;;;16.42;10.55;;;21.90;42.20;;;;;;4963925;28;20039;-69
2022/11/25 07:49:05;;;;;;;14.38;10.05;;;22.00;42.10;;;;;;4968731;28;20055;-68
2022/11/25 07:51:36;;;;;;;15.48;10.75;;;22.00;42.00;;;;;;4959900;28;20049;-70
2022/11/25 07:54:07;;;;;;;14.95;10.80;;;22.00;42.00;;;;;;4963381;28;20054;-71
2022/11/25 07:56:36;;;;;;;20.75;10.75;;;22.00;42.50;;;;;;4963391;28;20529;-68
2022/11/25 07:59:06;;;;;;;17.08;11.75;;;22.10;41.90;;;;;;4960236;28;20414;-66
2022/11/25 08:01:34;;;;;;;16.63;11.65;;;22.10;41.80;;;;;;4964484;28;20137;-70
2022/11/25 08:04:01;;;;;;;16.33;11.85;;;22.10;41.70;;;;;;4962585;28;20054;-68
2022/11/25 08:06:28;;;;;;;14.38;10.75;;;22.10;41.50;;;;;;4962966;28;20055;-69
2022/11/25 08:08:56;;;;;;;16.45;11.45;;;22.20;41.50;;;;;;4964357;28;20093;-69
2022/11/25 08:11:26;;;;;;;15.70;10.85;;;22.20;41.30;;;;;;4963276;28;20061;-72
2022/11/25 08:13:54;;;;;;;15.27;11.30;;;22.20;41.30;;;;;;4960945;28;20062;-71
2022/11/25 08:16:26;;;;;;;14.10;10.85;;;22.20;41.10;;;;;;4965499;28;20192;-66
2022/11/25 08:18:54;;;;;;;15.13;11.43;;;22.30;41.10;;;;;;4968709;28;20077;-66
2022/11/25 08:21:22;;;;;;;15.63;11.82;;;22.30;41.20;;;;;;4969663;28;20057;-65
2022/11/25 08:23:51;;;;;;;16.42;11.43;;;22.30;41.20;;;;;;4946899;28;20047;-66
2022/11/25 08:26:29;;;;;;;16.65;11.30;;;22.30;41.20;;;;;;4962983;28;20473;-67
2022/11/25 08:28:57;;;;;;;17.25;12.20;;;22.30;41.30;;;;;;4956374;28;20051;-66
2022/11/25 08:31:34;;;;;;;13.85;10.55;;;22.40;41.30;;;;;;4966518;28;20783;-71
2022/11/25 08:34:02;;;;;;;15.10;10.75;;;22.40;41.30;;;;;;4968510;28;20768;-66
2022/11/25 08:36:30;;;;;;;14.07;10.60;;;22.40;41.30;;;;;;4966924;28;20094;-66
2022/11/25 08:38:59;;;;;;;13.05;10.00;;;22.40;41.80;;;;;;4964905;28;20065;-66
2022/11/25 08:41:30;;;;;;;16.33;11.03;;;22.50;41.20;;;;;;4967305;28;20059;-65
2022/11/25 08:43:59;;;;;;;14.82;10.18;;;22.50;41.40;;;;;;4964335;28;20632;-66
2022/11/25 08:46:32;;;;;;;13.70;10.10;;;22.50;41.90;;;;;;4961154;28;20413;-65
2022/11/25 08:48:59;;;;;;;14.05;10.25;;;22.50;41.50;;;;;;4947716;28;20058;-67
2022/11/25 08:51:29;;;;;;;13.77;9.88;;;22.50;41.50;;;;;;4963102;28;20043;-64
2022/11/25 08:53:57;;;;;;;12.77;10.15;;;22.60;41.50;;;;;;4965405;28;20054;-65
2022/11/25 08:56:25;;;;;;;14.20;10.27;;;22.60;41.40;;;;;;4967723;28;20381;-66
2022/11/25 08:58:53;;;;;;;12.65;10.48;;;22.60;41.30;;;;;;4968900;28;20061;-65
2022/11/25 09:01:22;;;;;;;15.15;10.05;;;22.60;41.20;;;;;;4967887;28;20046;-67
2022/11/25 09:03:52;;;;;;;15.68;9.38;;;22.70;41.20;;;;;;4977661;28;20073;-67
2022/11/25 09:06:19;;;;;;;12.63;9.88;;;22.70;41.10;;;;;;4955828;28;20047;-66
2022/11/25 09:08:47;;;;;;;11.48;8.80;;;22.70;41.00;;;;;;4970548;28;20047;-67
2022/11/25 09:11:14;;;;;;;11.73;9.50;;;22.70;41.00;;;;;;4970642;28;20046;-64
2022/11/25 09:13:41;;;;;;;11.52;8.82;;;22.70;40.90;;;;;;4970943;28;20402;-67
2022/11/25 09:16:08;;;;;;;10.73;8.65;;;22.70;40.80;;;;;;4968717;28;20047;-65
2022/11/25 09:18:37;;;;;;;11.80;8.88;;;22.80;40.80;;;;;;4961463;28;20246;-65
2022/11/25 09:21:13;;;;;;;9.90;7.88;;;22.80;40.70;;;;;;4964018;28;20053;-65
2022/11/25 09:23:41;;;;;;;10.98;8.57;;;22.80;40.70;;;;;;4966406;28;20085;-64
2022/11/25 09:26:26;;;;;;;10.57;8.10;;;22.80;40.70;;;;;;4971129;28;20046;-65
2022/11/25 09:28:54;;;;;;;11.27;8.40;;;22.80;40.70;;;;;;4968489;28;20057;-66
2022/11/25 09:31:22;;;;;;;10.63;8.45;;;22.90;40.70;;;;;;4967686;28;20050;-65
2022/11/25 09:33:49;;;;;;;9.98;8.23;;;22.90;40.70;;;;;;4969418;28;20069;-64
2022/11/25 09:36:18;;;;;;;10.63;7.43;;;22.90;40.70;;;;;;4966541;28;20039;-65
2022/11/25 09:38:45;;;;;;;10.15;7.95;;;22.90;40.60;;;;;;4967672;28;20051;-67
2022/11/25 09:48:28;;;;;;;7.53;6.80;;;23.00;40.70;;;;;;4971097;28;20059;-66
2022/11/25 09:51:23;;;;;;;8.38;6.70;;;23.00;40.70;;;;;;4961176;28;20058;-69
2022/11/25 09:53:53;;;;;;;9.52;6.57;;;23.00;40.60;;;;;;4955435;28;20515;-64
2022/11/25 09:56:38;;;;;;;8.25;6.55;;;23.00;40.70;;;;;;4968430;28;20490;-66
2022/11/25 09:59:30;;;;;;;8.15;6.32;;;23.00;40.50;;;;;;4965029;28;20051;-67
2022/11/25 10:02:02;;;;;;;8.65;6.30;;;23.00;40.40;;;;;;4946325;28;20051;-67
2022/11/25 10:04:36;;;;;;;8.75;6.03;;;23.00;40.30;;;;;;4967767;28;20313;-71
2022/11/25 10:07:10;;;;;;;9.30;6.53;;;23.10;40.30;;;;;;4964865;28;20054;-69
2022/11/25 10:09:37;;;;;;;8.40;6.15;;;23.10;40.30;;;;;;4968821;28;20058;-69
2022/11/25 10:12:26;;;;;;;9.95;6.82;;;23.10;40.20;;;;;;4952383;28;20511;-65
2022/11/25 10:15:05;;;;;;;7.95;6.15;;;23.10;40.20;;;;;;4965617;28;20067;-66
2022/11/25 10:17:50;;;;;;;7.80;6.63;;;23.10;40.20;;;;;;4968983;28;20054;-64
2022/11/25 10:20:31;;;;;;;6.88;5.57;;;23.10;40.20;;;;;;4968215;28;20475;-67
2022/11/25 10:23:10;;;;;;;12.52;6.03;;;23.20;40.10;;;;;;4963498;28;20474;-67
2022/11/25 10:25:44;;;;;;;7.85;5.78;;;23.20;40.10;;;;;;4967938;28;20059;-65
2022/11/25 10:28:21;;;;;;;7.80;5.22;;;23.20;40.10;;;;;;4965334;28;20070;-67
2022/11/25 10:31:04;;;;;;;6.90;4.80;;;23.20;40.30;;;;;;4963195;28;20485;-66
2022/11/25 10:33:49;;;;;;;7.57;5.35;;;23.20;40.50;;;;;;4941063;28;20050;-64
2022/11/25 10:36:24;;;;;;;7.03;5.28;;;23.30;40.40;;;;;;4947939;28;20724;-66
2022/11/25 10:39:01;;;;;;;7.50;5.22;;;23.30;40.80;;;;;;4964441;28;20054;-66
2022/11/25 10:41:40;;;;;;;8.57;5.03;;;23.40;40.10;;;;;;4962373;28;20054;-63
2022/11/25 10:44:27;;;;;;;5.35;4.65;;;23.40;40.20;;;;;;4960108;28;20051;-64
2022/11/25 10:47:15;;;;;;;6.05;4.35;;;23.50;40.30;;;;;;4933453;28;20055;-65
2022/11/25 10:50:07;;;;;;;6.60;4.38;;;23.50;40.30;;;;;;4963697;28;20572;-64
2022/11/25 10:52:41;;;;;;;7.13;4.60;;;23.60;40.30;;;;;;4964262;28;20049;-65
2022/11/25 10:55:13;;;;;;;5.63;4.18;;;23.60;40.30;;;;;;4959792;28;20050;-67
2022/11/25 10:57:41;;;;;;;5.43;4.05;;;23.70;40.20;;;;;;4964540;28;20061;-66
2022/11/25 11:00:29;;;;;;;6.50;4.57;;;23.70;40.20;;;;;;4966330;28;20054;-64
2022/11/25 11:02:58;;;;;;;4.32;3.83;;;23.70;40.10;;;;;;4965565;28;20043;-66
2022/11/25 11:05:29;;;;;;;9.80;4.80;;;23.70;39.90;;;;;;4962844;28;20392;-65
2022/11/25 11:08:24;;;;;;;6.43;4.43;;;23.70;39.80;;;;;;4963802;28;20500;-67
2022/11/25 11:11:21;;;;;;;8.32;4.10;;;23.70;39.70;;;;;;4952969;28;20449;-67
2022/11/25 11:13:56;;;;;;;6.47;4.53;;;23.70;39.60;;;;;;4964561;28;20717;-65
2022/11/25 11:16:35;;;;;;;10.70;4.53;;;23.70;39.50;;;;;;4961977;28;20078;-65
2022/11/25 11:19:03;;;;;;;5.63;3.90;;;23.70;39.60;;;;;;4968211;28;20800;-66
2022/11/25 11:21:34;;;;;;;6.63;4.00;;;23.70;39.60;;;;;;4961280;28;20059;-67
2022/11/25 11:24:19;;;;;;;5.68;3.60;;;23.70;39.60;;;;;;4957254;28;20047;-66
2022/11/25 11:27:02;;;;;;;5.53;3.30;;;23.70;39.40;;;;;;4966734;28;20046;-66
2022/11/25 11:29:29;;;;;;;5.85;4.10;;;23.70;39.40;;;;;;4961509;28;20049;-66
2022/11/25 11:32:00;;;;;;;6.53;3.53;;;23.70;39.40;;;;;;4965679;28;20146;-67
2022/11/25 11:35:02;;;;;;;4.05;3.45;;;23.70;39.30;;;;;;4964391;28;20051;-67
2022/11/25 11:37:41;;;;;;;6.10;3.25;;;23.70;39.20;;;;;;4966419;28;20043;-67
2022/11/25 11:40:31;;;;;;;5.40;3.20;;;23.70;39.20;;;;;;4963973;28;20059;-66
2022/11/25 11:43:36;;;;;;;4.03;3.13;;;23.70;39.20;;;;;;4944990;28;20058;-66
2022/11/25 11:46:25;;;;;;;3.97;3.10;;;23.70;39.20;;;;;;4963444;28;20058;-67
2022/11/25 11:49:14;;;;;;;4.03;3.45;;;23.70;39.20;;;;;;4962549;28;20058;-67
2022/11/25 11:52:07;;;;;;;5.63;3.28;;;23.70;39.10;;;;;;4966565;28;20047;-67
2022/11/25 11:54:41;;;;;;;5.03;3.35;;;23.70;39.00;;;;;;4960288;28;20043;-67
2022/11/25 11:57:33;;;;;;;3.50;2.63;;;23.70;39.00;;;;;;4946691;28;20089;-67
2022/11/25 12:00:07;;;;;;;3.20;2.90;;;23.70;39.00;;;;;;4963700;28;20050;-66
2022/11/25 12:02:52;;;;;;;3.55;2.95;;;23.70;39.20;;;;;;4956414;28;20047;-66
2022/11/25 12:05:23;;;;;;;4.03;2.70;;;23.70;39.40;;;;;;4958941;28;20085;-66
2022/11/25 12:08:12;;;;;;;2.60;2.40;;;23.70;39.50;;;;;;4961790;28;20054;-63
2022/11/25 12:10:53;;;;;;;3.78;2.88;;;23.70;39.60;;;;;;4968972;28;20467;-63
2022/11/25 12:13:45;;;;;;;3.88;2.67;;;23.70;39.60;;;;;;4968269;28;20049;-65
2022/11/25 12:16:24;;;;;;;2.80;2.50;;;23.70;39.60;;;;;;4959143;28;20505;-66
2022/11/25 12:19:04;;;;;;;2.97;2.60;;;23.80;39.60;;;;;;4965081;28;20046;-64
2022/11/25 12:22:04;;;;;;;3.45;2.70;;;23.80;39.60;;;;;;4964110;28;20051;-64
2022/11/25 12:25:07;;;;;;;3.05;2.25;;;23.80;39.60;;;;;;4963218;28;20047;-63
2022/11/25 12:27:58;;;;;;;4.47;2.72;;;23.90;39.60;;;;;;4961905;28;20038;-63
2022/11/25 12:30:34;;;;;;;4.95;2.20;;;23.90;39.60;;;;;;4967171;28;20050;-68
2022/11/25 12:33:20;;;;;;;4.32;2.35;;;23.90;39.60;;;;;;4960322;28;20466;-67
2022/11/25 12:36:04;;;;;;;3.00;1.92;;;23.90;39.50;;;;;;4966229;28;20516;-67
2022/11/25 12:38:50;;;;;;;5.28;2.47;;;23.90;39.60;;;;;;4959531;28;20130;-64
2022/11/25 12:41:29;;;;;;;2.53;1.92;;;23.90;39.60;;;;;;4963321;28;20086;-66
2022/11/25 12:44:05;;;;;;;2.40;2.20;;;23.90;39.50;;;;;;4963318;28;20057;-67
2022/11/25 12:46:43;;;;;;;3.85;2.20;;;23.90;39.50;;;;;;4962945;28;20523;-66
2022/11/25 12:49:20;;;;;;;3.03;2.50;;;23.90;40.00;;;;;;4960993;28;20051;-66
2022/11/25 12:52:10;;;;;;;6.47;2.25;;;23.90;39.10;;;;;;4967250;28;20504;-65
2022/11/25 12:54:54;;;;;;;;;;;23.90;39.00;;;;;;4966605;28;20043;-67
2022/11/25 12:57:59;;;;;;;3.70;2.13;;;23.90;39.10;;;;;;4965609;28;20012;-68
2022/11/25 13:00:52;;;;;;;5.38;1.80;;;24.00;39.20;;;;;;4958009;28;20055;-69
2022/11/25 13:03:58;;;;;;;4.03;2.30;;;24.00;39.20;;;;;;4965770;28;20477;-65
2022/11/25 13:06:53;;;;;;;3.55;1.98;;;24.00;38.90;;;;;;4961280;28;20057;-71
2022/11/25 13:09:49;;;;;;;2.63;1.80;;;23.90;38.80;;;;;;4954103;28;20409;-72
2022/11/25 13:12:48;;;;;;;5.00;2.08;;;23.90;38.70;;;;;;4956078;28;20051;-72
2022/11/25 13:15:26;;;;;;;2.85;2.00;;;23.90;38.70;;;;;;4968819;28;20053;-71
2022/11/25 13:18:08;;;;;;;2.80;1.98;;;23.90;38.60;;;;;;4971486;28;20055;-70
2022/11/25 13:20:43;;;;;;;3.33;2.05;;;23.90;38.60;;;;;;4971841;28;20142;-69
2022/11/25 13:23:28;;;;;;;4.38;2.35;;;23.90;38.60;;;;;;4972711;28;20072;-71
2022/11/25 13:26:35;;;;;;;4.43;1.95;;;23.90;38.60;;;;;;4971954;28;20137;-71
2022/11/25 13:29:42;;;;;;;4.05;1.98;;;23.90;38.50;;;;;;4973041;28;20051;-71